Terminal Aerodrome Forecast
Issued by NWS Louisville, KY

Home | Current Version | Previous Version | Text Only | Print | Product List | Glossary On
Versions: 1 2 3 4 5 6 7 8 9 10 11 12 13 14 15
000
FTUS43 KLMK 282322
TAFSDF
TAF
KSDF 282322Z 2900/3006 VRB06KT P6SM VCSH BKN050
     FM290200 05004KT P6SM BKN150
     FM291000 04004KT 6SM BR SCT200
     FM291300 05007KT P6SM SCT045=

USA.gov is the U.S. government's official web portal to all federal, state and local government web resources and services.